M I D A S
Marine Information and Data Acquisition System
Tripno 2059 of the Zeeleeuw from 2011-03-16 07:51:13 to 2011-03-16 15:12:10
Back to CruiseResearch ActivitiesStationsMapUnderway DataData graphs

EquipmentUnitsComment
TimeDGPSUTC
LatitudeDGPSDM.mWGS84
LongitudeDGPSDM.mWGS84
HeadingGyrodeg 
SOGDGPSknotsSpeed over ground
COGDGPSdegCourse over ground
DepthEcho soundermeters200 kHz
Missing or incorrect values are displayed as -999
Navigation data collected by the RV Zeeleeuw from 2011-03-16 07:52:53 to 2011-03-16 15:19:00
                                                                                    Next 1000 lines
Time Latitude Longitude Heading SOG COG Depth
2011-03-16 07:53:02 51°13.661 2°55.956 110.1 0.9 288 9.8
2011-03-16 07:53:08 51°13.662 2°55.952 110.1 1.2 289 9.9
2011-03-16 07:53:13 51°13.662 2°55.949 110.2 1.6 291 10.1
2011-03-16 07:53:17 51°13.663 2°55.946 110.3 2 290 10
2011-03-16 07:53:22 51°13.664 2°55.941 110.4 2.3 292 -999
2011-03-16 07:53:28 51°13.666 2°55.935 110.4 2.6 291 -999
2011-03-16 07:53:33 51°13.667 2°55.929 109.9 2.7 291 -999
2011-03-16 07:53:38 51°13.669 2°55.923 109.1 3 289 -999
2011-03-16 07:53:44 51°13.67 2°55.915 108.5 3.2 289 -999
2011-03-16 07:53:49 51°13.672 2°55.908 108.1 3.4 287 -999
2011-03-16 07:53:53 51°13.673 2°55.902 107.7 3.5 287 -999
2011-03-16 07:53:58 51°13.674 2°55.895 107.3 3.7 286 -999
2011-03-16 07:54:04 51°13.676 2°55.885 106.8 3.7 286 -999
2011-03-16 07:54:09 51°13.677 2°55.877 106.7 3.7 285 -999
2011-03-16 07:54:13 51°13.679 2°55.87 106.7 3.7 285 -999
2011-03-16 07:54:19 51°13.68 2°55.861 106.7 3.6 286 -999
2011-03-16 07:54:24 51°13.681 2°55.854 106.7 3.5 285 -999
2011-03-16 07:54:28 51°13.682 2°55.848 106.7 3.4 286 -999
2011-03-16 07:54:33 51°13.684 2°55.841 106.8 3.3 285 -999
2011-03-16 07:54:38 51°13.685 2°55.833 107 3.3 286 -999
2011-03-16 07:54:44 51°13.686 2°55.825 107.2 3.3 286 -999
2011-03-16 07:54:48 51°13.687 2°55.82 107.3 3.2 286 11.9
2011-03-16 07:54:53 51°13.688 2°55.813 107.3 3 285 12.9
2011-03-16 07:54:58 51°13.689 2°55.808 107.5 2.6 288 4.9
2011-03-16 07:55:04 51°13.69 2°55.802 108.3 2.4 286 -999
2011-03-16 07:55:09 51°13.691 2°55.797 110.3 2.2 287 -999
2011-03-16 07:55:13 51°13.692 2°55.794 111.7 2 287 14.3
2011-03-16 07:55:18 51°13.693 2°55.79 112.6 1.7 289 14.5
2011-03-16 07:55:23 51°13.693 2°55.787 113.7 1.2 287 14.6
2011-03-16 07:55:28 51°13.694 2°55.785 115.3 1.2 291 14.6
2011-03-16 07:55:33 51°13.694 2°55.782 118.6 1.3 288 14.6
2011-03-16 07:55:37 51°13.695 2°55.78 120.9 1.4 298 5
2011-03-16 07:55:42 51°13.696 2°55.777 122.9 1.6 294 14.6
2011-03-16 07:55:47 51°13.697 2°55.774 124.5 1.8 301 14.6
2011-03-16 07:55:52 51°13.699 2°55.77 125.9 2.1 299 5.1
2011-03-16 07:55:57 51°13.701 2°55.766 127.5 2.3 305 -999
2011-03-16 07:56:02 51°13.703 2°55.761 129.6 2.6 305 -999
2011-03-16 07:56:08 51°13.706 2°55.755 131.9 2.9 309 -999
2011-03-16 07:56:13 51°13.708 2°55.75 134.2 3.1 309 -999
2011-03-16 07:56:18 51°13.711 2°55.745 135.9 3.3 313 -999
2011-03-16 07:56:24 51°13.715 2°55.738 137.2 3.4 313 -999
2011-03-16 07:56:29 51°13.719 2°55.732 138.6 3.6 316 -999
2011-03-16 07:56:33 51°13.722 2°55.728 139.9 3.7 316 -999
2011-03-16 07:56:39 51°13.726 2°55.721 141.3 3.8 318 -999
2011-03-16 07:56:45 51°13.731 2°55.714 142.6 3.9 320 -999
2011-03-16 07:56:49 51°13.735 2°55.71 144.2 3.9 322 -999
2011-03-16 07:56:53 51°13.738 2°55.706 145.7 4 322 -999
2011-03-16 07:56:59 51°13.744 2°55.699 147 4 324 -999
2011-03-16 07:57:05 51°13.749 2°55.693 148.3 4.3 325 -999
2011-03-16 07:57:09 51°13.754 2°55.689 149.7 4.5 327 -999
2011-03-16 07:57:13 51°13.758 2°55.685 151.2 4.6 329 -999
2011-03-16 07:57:18 51°13.764 2°55.68 152.5 4.7 331 -999
2011-03-16 07:57:24 51°13.771 2°55.674 154.3 4.8 332 -999
2011-03-16 07:57:29 51°13.777 2°55.669 155.8 4.9 334 -999
2011-03-16 07:57:33 51°13.782 2°55.665 157.2 4.9 336 -999
2011-03-16 07:57:38 51°13.788 2°55.661 158.3 5 337 -999
2011-03-16 07:57:44 51°13.796 2°55.656 159.7 5 338 -999
2011-03-16 07:57:49 51°13.803 2°55.651 160.4 5.1 339 -999
2011-03-16 07:57:53 51°13.808 2°55.648 161.1 5.2 340 -999
2011-03-16 07:57:59 51°13.816 2°55.643 162 5.3 340 -999
2011-03-16 07:58:03 51°13.822 2°55.64 162.9 5.4 341 -999
2011-03-16 07:58:10 51°13.832 2°55.635 164.1 5.4 341 -999
2011-03-16 07:58:14 51°13.838 2°55.632 165.4 5.4 342 -999
2011-03-16 07:58:18 51°13.843 2°55.629 166.8 5.3 343 -999
2011-03-16 07:58:23 51°13.85 2°55.626 168.5 5.3 345 -999
2011-03-16 07:58:28 51°13.857 2°55.624 170.6 5.2 346 -999
2011-03-16 07:58:33 51°13.864 2°55.621 172.9 5.2 348 -999
2011-03-16 07:58:38 51°13.871 2°55.62 175.5 5.1 350 -999
2011-03-16 07:58:44 51°13.879 2°55.618 178.4 5.1 353 -999
2011-03-16 07:58:49 51°13.886 2°55.617 180.8 4.9 356 -999
2011-03-16 07:58:53 51°13.891 2°55.617 184.5 4.8 359 -999
2011-03-16 07:58:58 51°13.898 2°55.617 187.4 4.7 1 -999
2011-03-16 07:59:04 51°13.905 2°55.618 190 4.5 5 -999
2011-03-16 07:59:08 51°13.91 2°55.619 193.6 4.3 7 -999
2011-03-16 07:59:13 51°13.916 2°55.62 196.3 4.2 10 -999
2011-03-16 07:59:18 51°13.922 2°55.622 199 4 12 -999
2011-03-16 07:59:24 51°13.928 2°55.625 201.1 3.9 15 -999
2011-03-16 07:59:28 51°13.932 2°55.626 203.7 3.7 17 -999
2011-03-16 07:59:33 51°13.937 2°55.629 205.5 3.6 18 13.1
2011-03-16 07:59:38 51°13.941 2°55.632 207.3 3.4 20 13.1
2011-03-16 07:59:43 51°13.945 2°55.635 209 3.2 22 13.1
2011-03-16 07:59:48 51°13.949 2°55.637 211 2.9 23 13.1
2011-03-16 07:59:53 51°13.952 2°55.639 212.9 2.5 26 13.1
2011-03-16 07:59:57 51°13.954 2°55.641 215.6 2 25 13.1
2011-03-16 08:00:03 51°13.956 2°55.643 219.3 1.6 27 13.1
2011-03-16 08:00:09 51°13.958 2°55.644 222 1.2 26 13.1
2011-03-16 08:00:14 51°13.959 2°55.645 225.3 0.9 24 13.1
2011-03-16 08:00:18 51°13.96 2°55.645 228.7 0.6 16 13.1
2011-03-16 08:00:22 51°13.96 2°55.645 232.3 0.4 358 13.1
2011-03-16 08:00:28 51°13.961 2°55.645 236 0.4 323 13.2
2011-03-16 08:00:33 51°13.961 2°55.643 240.2 1 271 13.2
2011-03-16 08:00:37 51°13.96 2°55.64 244.2 1.6 251 13.2
2011-03-16 08:00:41 51°13.96 2°55.636 250.7 1.9 272 13.1
2011-03-16 08:00:46 51°13.96 2°55.632 259.6 2 267 13.1
2011-03-16 08:00:52 51°13.96 2°55.627 266.6 2 277 13.1
2011-03-16 08:00:57 51°13.961 2°55.622 271.9 2.1 276 13.1
2011-03-16 08:01:01 51°13.961 2°55.619 276.3 2.2 281 13.4
2011-03-16 08:01:06 51°13.962 2°55.614 280 2.3 285 13.2
2011-03-16 08:01:11 51°13.963 2°55.608 283.5 2.5 287 13.2
2011-03-16 08:01:16 51°13.964 2°55.602 286.8 2.8 291 13.2
2011-03-16 08:01:21 51°13.966 2°55.596 290.5 3.2 293 13.2
2011-03-16 08:01:25 51°13.968 2°55.59 294 3.6 295 12.9
2011-03-16 08:01:30 51°13.971 2°55.582 296.9 4 297 12.9
2011-03-16 08:01:36 51°13.974 2°55.572 298.8 4.4 298 12.7
2011-03-16 08:01:41 51°13.977 2°55.563 299.9 4.7 300 13
2011-03-16 08:01:46 51°13.981 2°55.554 301.2 5 302 13.1
2011-03-16 08:01:49 51°13.983 2°55.548 302.7 5.2 303 13.1
2011-03-16 08:01:56 51°13.989 2°55.534 304.8 5.4 306 13.1
2011-03-16 08:02:01 51°13.995 2°55.525 307.7 5.6 309 13.2
2011-03-16 08:02:05 51°13.999 2°55.517 310.8 5.8 312 13
2011-03-16 08:02:09 51°14.004 2°55.51 314.1 5.9 315 13
2011-03-16 08:02:16 51°14.012 2°55.497 316.5 6 316 12.9
2011-03-16 08:02:21 51°14.019 2°55.488 319.3 6.1 320 12.9
2011-03-16 08:02:26 51°14.025 2°55.48 322.3 6.2 322 12.9
2011-03-16 08:02:31 51°14.033 2°55.472 325.5 6.3 325 13.1
2011-03-16 08:02:36 51°14.04 2°55.464 327.7 6.4 326 12.7
2011-03-16 08:02:41 51°14.047 2°55.456 328.2 6.5 326 12.5
2011-03-16 08:02:46 51°14.055 2°55.448 328.7 6.7 328 12.8
2011-03-16 08:02:51 51°14.064 2°55.44 330 7 329 12.8
2011-03-16 08:02:55 51°14.071 2°55.434 332.4 7.3 332 12.8
2011-03-16 08:03:01 51°14.082 2°55.426 335.1 7.5 335 12.8
2011-03-16 08:03:06 51°14.093 2°55.419 337.6 7.7 337 12.8
2011-03-16 08:03:11 51°14.103 2°55.413 339.1 8 337 12.8
2011-03-16 08:03:16 51°14.114 2°55.407 340.8 8.2 339 13
2011-03-16 08:03:21 51°14.125 2°55.401 342.8 8.4 341 12.8
2011-03-16 08:03:26 51°14.136 2°55.394 344 8.5 341 12.8
2011-03-16 08:03:30 51°14.145 2°55.389 344.1 8.7 341 12.7
2011-03-16 08:03:36 51°14.159 2°55.381 343.4 8.9 340 12.9
2011-03-16 08:03:41 51°14.171 2°55.375 342.8 9 340 12.9
2011-03-16 08:03:46 51°14.182 2°55.367 341.8 9.1 338 12.8
2011-03-16 08:03:50 51°14.192 2°55.361 340.5 9.1 338 12.9
2011-03-16 08:03:56 51°14.206 2°55.352 339.9 9.2 337 12.7
2011-03-16 08:04:01 51°14.218 2°55.343 338.9 9.3 336 12.7
2011-03-16 08:04:06 51°14.229 2°55.335 338.1 9.3 336 12.9
2011-03-16 08:04:11 51°14.241 2°55.326 337.2 9.4 335 12.7
2011-03-16 08:04:15 51°14.25 2°55.319 336.5 9.5 334 13
2011-03-16 08:04:21 51°14.265 2°55.307 335.6 9.5 332 12.8
2011-03-16 08:04:26 51°14.277 2°55.297 334.7 9.6 332 12.8
2011-03-16 08:04:31 51°14.288 2°55.286 333.5 9.7 331 12.7
2011-03-16 08:04:35 51°14.298 2°55.278 332.5 9.7 330 13
2011-03-16 08:04:41 51°14.312 2°55.265 331.9 9.7 329 12.8
2011-03-16 08:04:46 51°14.323 2°55.253 330.9 9.7 328 12.7
2011-03-16 08:04:51 51°14.334 2°55.242 330.3 9.8 328 12.8
2011-03-16 08:04:54 51°14.341 2°55.234 329.5 9.9 327 12.9
2011-03-16 08:05:01 51°14.358 2°55.218 329.1 10 327 12.7
2011-03-16 08:05:05 51°14.367 2°55.208 328.6 10 326 12.7
2011-03-16 08:05:10 51°14.378 2°55.195 328.2 10.1 326 12.8
2011-03-16 08:05:16 51°14.392 2°55.18 328.3 10.1 326 12.9
2011-03-16 08:05:21 51°14.404 2°55.167 327.8 10.2 324 12.4
2011-03-16 08:05:26 51°14.415 2°55.153 326 10.3 323 12.7
2011-03-16 08:05:31 51°14.427 2°55.14 326 10.3 325 -999
2011-03-16 08:05:36 51°14.439 2°55.127 326.7 10.5 324 12.6
2011-03-16 08:05:41 51°14.451 2°55.114 327.3 10.7 326 13.1
2011-03-16 08:05:46 51°14.463 2°55.1 327.4 10.8 326 13
2011-03-16 08:05:51 51°14.476 2°55.087 327.4 10.9 327 13.2
2011-03-16 08:05:56 51°14.489 2°55.074 328.9 11.1 328 13.2
2011-03-16 08:06:01 51°14.502 2°55.061 329.8 11.2 328 12.6
2011-03-16 08:06:05 51°14.513 2°55.052 330.4 11.2 330 13
2011-03-16 08:06:10 51°14.527 2°55.039 331 11.3 330 13.9
2011-03-16 08:06:14 51°14.538 2°55.03 331.1 11.4 331 14.3
2011-03-16 08:06:21 51°14.558 2°55.013 331.1 11.7 332 13.7
2011-03-16 08:06:25 51°14.57 2°55.003 330.8 11.9 331 13.4
2011-03-16 08:06:29 51°14.582 2°54.992 329.1 12 330 13.5
2011-03-16 08:06:36 51°14.602 2°54.973 327.8 12.1 330 13.6
2011-03-16 08:06:41 51°14.617 2°54.959 326.8 12.3 330 13.5
2011-03-16 08:06:46 51°14.632 2°54.945 326.4 12.5 331 13.3
2011-03-16 08:06:51 51°14.647 2°54.931 326.7 12.6 329 13.4
2011-03-16 08:06:56 51°14.662 2°54.916 325.8 12.6 328 13.4
2011-03-16 08:07:01 51°14.676 2°54.9 323.8 12.7 326 13.5
2011-03-16 08:07:06 51°14.69 2°54.884 322 12.6 325 13.5
2011-03-16 08:07:11 51°14.705 2°54.868 322 12.7 326 13.6
2011-03-16 08:07:15 51°14.717 2°54.856 323.1 12.8 327 13
2011-03-16 08:07:21 51°14.734 2°54.837 322.7 12.8 325 13.3
2011-03-16 08:07:26 51°14.749 2°54.821 322.7 12.7 326 13.4
2011-03-16 08:07:31 51°14.763 2°54.804 322.3 12.8 325 13.4
2011-03-16 08:07:35 51°14.775 2°54.791 321.2 12.7 323 13.3
2011-03-16 08:07:41 51°14.791 2°54.771 320.7 12.8 323 13.1
2011-03-16 08:07:46 51°14.805 2°54.753 320.4 12.7 322 13.3
2011-03-16 08:07:51 51°14.819 2°54.735 319.9 12.8 322 13.7
2011-03-16 08:07:56 51°14.833 2°54.718 319.9 12.9 322 13.2
2011-03-16 08:08:01 51°14.847 2°54.701 320.9 12.8 323 13
2011-03-16 08:08:06 51°14.862 2°54.685 321.4 12.8 324 13.1
2011-03-16 08:08:10 51°14.874 2°54.672 321.8 12.9 324 13.2
2011-03-16 08:08:16 51°14.891 2°54.652 322.6 13 325 13.2
2011-03-16 08:08:21 51°14.906 2°54.636 322.9 13 325 13.3
2011-03-16 08:08:26 51°14.921 2°54.619 323.1 13 325 13
2011-03-16 08:08:30 51°14.932 2°54.606 323.2 13 325 13.4
2011-03-16 08:08:35 51°14.947 2°54.59 323.4 13 325 12.6
2011-03-16 08:08:41 51°14.965 2°54.57 323.7 12.9 325 12.2
2011-03-16 08:08:46 51°14.98 2°54.554 323.8 12.9 326 12.3
2011-03-16 08:08:50 51°14.992 2°54.541 323.9 13 326 12.2
2011-03-16 08:08:56 51°15.009 2°54.522 323.9 12.9 326 12.2
2011-03-16 08:09:01 51°15.024 2°54.505 324 12.9 325 12.4
2011-03-16 08:09:06 51°15.038 2°54.489 322.8 12.9 324 12.2
2011-03-16 08:09:11 51°15.052 2°54.472 322.3 12.8 325 11.9
2011-03-16 08:09:16 51°15.066 2°54.456 322 12.6 324 12.2
2011-03-16 08:09:21 51°15.081 2°54.438 321.6 12.7 322 12.5
2011-03-16 08:09:26 51°15.095 2°54.422 320.8 12.7 322 12
2011-03-16 08:09:31 51°15.108 2°54.404 320.2 12.7 321 12.1
2011-03-16 08:09:36 51°15.122 2°54.387 320 12.7 322 12.3
2011-03-16 08:09:41 51°15.136 2°54.369 320 12.7 322 12.5
2011-03-16 08:09:46 51°15.15 2°54.353 320 12.7 322 12.1
2011-03-16 08:09:51 51°15.164 2°54.335 320.1 12.6 322 12.7
2011-03-16 08:09:56 51°15.178 2°54.318 320.2 12.7 323 12.2
2011-03-16 08:10:01 51°15.192 2°54.301 320.3 12.7 323 12.4
2011-03-16 08:10:06 51°15.206 2°54.284 320.3 12.6 323 12.4
2011-03-16 08:10:10 51°15.217 2°54.271 320.2 12.7 322 12.6
2011-03-16 08:10:16 51°15.234 2°54.251 320 12.7 322 12.5
2011-03-16 08:10:21 51°15.248 2°54.233 319.7 12.7 322 12.5
2011-03-16 08:10:26 51°15.262 2°54.216 319.5 12.8 322 12
2011-03-16 08:10:30 51°15.273 2°54.202 319.4 12.8 323 12.2
2011-03-16 08:10:36 51°15.29 2°54.181 319.9 12.7 323 12.4
2011-03-16 08:10:41 51°15.304 2°54.164 320.2 12.9 323 12.7
2011-03-16 08:10:46 51°15.318 2°54.147 320.6 12.8 324 12.5
2011-03-16 08:10:50 51°15.329 2°54.133 320.9 12.8 324 12.5
2011-03-16 08:10:56 51°15.346 2°54.113 321.1 12.8 323 12.5
2011-03-16 08:11:01 51°15.36 2°54.096 320.4 12.7 323 12.3
2011-03-16 08:11:06 51°15.375 2°54.079 320.4 12.8 323 12.5
2011-03-16 08:11:11 51°15.389 2°54.062 320.4 12.8 323 12.7
2011-03-16 08:11:15 51°15.4 2°54.049 320.3 12.8 323 12.6
2011-03-16 08:11:21 51°15.417 2°54.028 320.6 12.8 322 12.8
2011-03-16 08:11:26 51°15.431 2°54.01 320 12.8 321 12.8
2011-03-16 08:11:31 51°15.445 2°53.992 319.4 12.9 321 12.8
2011-03-16 08:11:36 51°15.458 2°53.975 319.3 12.8 320 12.5
2011-03-16 08:11:41 51°15.472 2°53.957 318.9 12.7 321 12.9
2011-03-16 08:11:46 51°15.486 2°53.939 319.3 12.7 322 13.4
2011-03-16 08:11:51 51°15.5 2°53.921 319.9 12.8 322 13.2
2011-03-16 08:11:56 51°15.513 2°53.904 319.8 12.8 321 13.2
2011-03-16 08:12:01 51°15.527 2°53.886 320.2 12.8 321 13.5
2011-03-16 08:12:06 51°15.541 2°53.868 319.5 12.8 321 13.3
2011-03-16 08:12:11 51°15.555 2°53.85 319.3 12.8 320 14
2011-03-16 08:12:16 51°15.568 2°53.831 318.8 12.9 320 14
2011-03-16 08:12:21 51°15.582 2°53.813 318.4 12.9 321 13.7
2011-03-16 08:12:26 51°15.596 2°53.795 318.8 12.8 320 13.5
2011-03-16 08:12:29 51°15.604 2°53.784 319.2 12.9 321 13.7
2011-03-16 08:12:36 51°15.623 2°53.759 319.2 12.8 320 13.5
2011-03-16 08:12:40 51°15.635 2°53.745 318.7 12.7 321 13.3
2011-03-16 08:12:45 51°15.648 2°53.727 318.5 12.8 320 13.6
2011-03-16 08:12:49 51°15.659 2°53.712 318.4 12.9 321 13.8
2011-03-16 08:12:56 51°15.678 2°53.687 318.5 12.7 320 13.4
2011-03-16 08:13:01 51°15.692 2°53.67 318.2 12.8 321 13.5
2011-03-16 08:13:05 51°15.703 2°53.655 318 12.8 321 14
2011-03-16 08:13:09 51°15.714 2°53.641 318.3 12.9 320 13.7
2011-03-16 08:13:16 51°15.733 2°53.616 318.4 12.7 321 13.5
2011-03-16 08:13:21 51°15.747 2°53.598 318 12.7 321 14
2011-03-16 08:13:25 51°15.758 2°53.583 318.5 12.8 321 13.5
2011-03-16 08:13:31 51°15.774 2°53.562 318.7 12.8 321 13.7
2011-03-16 08:13:35 51°15.786 2°53.549 319.2 12.8 322 13.8
2011-03-16 08:13:41 51°15.802 2°53.527 319.2 12.8 321 13.6
2011-03-16 08:13:45 51°15.813 2°53.513 318.8 12.7 321 14.1
2011-03-16 08:13:50 51°15.827 2°53.495 318.4 12.8 321 14.3
2011-03-16 08:13:55 51°15.841 2°53.478 318.3 12.8 322 14.2
2011-03-16 08:14:01 51°15.859 2°53.459 318.8 12.9 324 14.3
2011-03-16 08:14:06 51°15.874 2°53.443 321.4 12.9 327 13.9
2011-03-16 08:14:11 51°15.889 2°53.428 324.2 12.8 328 13.8
2011-03-16 08:14:16 51°15.904 2°53.414 325.9 12.9 330 14
2011-03-16 08:14:21 51°15.92 2°53.4 327.2 12.9 330 13.6
2011-03-16 08:14:25 51°15.932 2°53.389 328.2 12.8 331 13.6
2011-03-16 08:14:30 51°15.948 2°53.376 329.2 12.9 332 14.1
2011-03-16 08:14:36 51°15.967 2°53.36 329.6 12.9 332 13.7
2011-03-16 08:14:41 51°15.983 2°53.347 329.9 12.9 333 13.6
2011-03-16 08:14:46 51°15.999 2°53.334 330.4 12.9 333 13.8
2011-03-16 08:14:50 51°16.012 2°53.324 330.7 13 333 13.8
2011-03-16 08:14:56 51°16.031 2°53.307 330.7 13 332 13.8
2011-03-16 08:15:01 51°16.047 2°53.294 330.5 13 333 13.9
2011-03-16 08:15:06 51°16.062 2°53.28 330.3 12.9 332 13.9
2011-03-16 08:15:10 51°16.075 2°53.269 330.1 13 332 14
2011-03-16 08:15:16 51°16.094 2°53.253 330.2 13 332 14
2011-03-16 08:15:21 51°16.11 2°53.239 330.2 13 332 14.3
2011-03-16 08:15:26 51°16.126 2°53.226 330.3 13 333 14
2011-03-16 08:15:31 51°16.142 2°53.213 330.4 13 332 13.9
2011-03-16 08:15:35 51°16.155 2°53.202 330.3 12.9 332 13.9
2011-03-16 08:15:41 51°16.174 2°53.186 330.2 13 332 14.3
2011-03-16 08:15:46 51°16.19 2°53.173 330.2 13 332 14.3
2011-03-16 08:15:51 51°16.206 2°53.16 330.3 13 332 14
2011-03-16 08:15:55 51°16.218 2°53.149 330.3 12.9 333 14.1
2011-03-16 08:16:01 51°16.237 2°53.133 330.3 13 333 14.3
2011-03-16 08:16:06 51°16.254 2°53.12 330.5 13.1 333 14.3
2011-03-16 08:16:11 51°16.269 2°53.106 330.5 13 332 14.1
2011-03-16 08:16:16 51°16.285 2°53.093 330.4 13 333 14.3
2011-03-16 08:16:21 51°16.301 2°53.08 330.5 13 333 14.2
2011-03-16 08:16:26 51°16.317 2°53.067 330.5 12.9 333 13.9
2011-03-16 08:16:31 51°16.333 2°53.054 330.3 12.9 332 14
2011-03-16 08:16:36 51°16.349 2°53.04 330.1 12.9 333 14.1
2011-03-16 08:16:41 51°16.364 2°53.027 329.9 12.8 332 14.3
2011-03-16 08:16:45 51°16.377 2°53.016 329.7 12.8 332 14.4
2011-03-16 08:16:49 51°16.39 2°53.006 329.6 12.9 332 14.2
2011-03-16 08:16:56 51°16.412 2°52.988 329.7 12.8 333 14.2
2011-03-16 08:17:01 51°16.428 2°52.974 329.8 12.8 332 14.6
2011-03-16 08:17:06 51°16.443 2°52.961 330.1 12.8 333 14.1
2011-03-16 08:17:10 51°16.456 2°52.951 330.1 12.8 332 14.2
2011-03-16 08:17:16 51°16.474 2°52.935 330.1 12.8 332 14.3
2011-03-16 08:17:21 51°16.49 2°52.922 330 12.8 333 14
2011-03-16 08:17:26 51°16.506 2°52.909 329.8 12.8 333 14
2011-03-16 08:17:30 51°16.519 2°52.9 330.7 12.8 335 14
2011-03-16 08:17:36 51°16.538 2°52.885 331.7 12.9 335 14.1
2011-03-16 08:17:41 51°16.555 2°52.874 333 12.8 337 13.8
2011-03-16 08:17:46 51°16.571 2°52.863 334 12.8 337 13.7
2011-03-16 08:17:50 51°16.584 2°52.854 334.5 12.9 338 13.9
2011-03-16 08:17:56 51°16.604 2°52.842 334.9 12.9 338 13.6
2011-03-16 08:18:00 51°16.618 2°52.834 336 12.9 340 13.5
2011-03-16 08:18:06 51°16.638 2°52.822 337.6 13 340 13.9
2011-03-16 08:18:11 51°16.655 2°52.814 338.3 13 342 13.4
2011-03-16 08:18:14 51°16.665 2°52.808 339.3 12.9 342 13.3
2011-03-16 08:18:21 51°16.689 2°52.796 339.8 12.8 342 13.7
2011-03-16 08:18:26 51°16.706 2°52.788 340.1 12.8 343 13.6
2011-03-16 08:18:31 51°16.723 2°52.779 340.5 12.8 343 12.8
2011-03-16 08:18:35 51°16.736 2°52.773 340.4 12.8 343 12.6
2011-03-16 08:18:41 51°16.756 2°52.763 340.5 12.8 343 12.3
2011-03-16 08:18:46 51°16.774 2°52.754 340.2 12.9 343 12.4
2011-03-16 08:18:51 51°16.791 2°52.746 340.3 12.8 342 11.9
2011-03-16 08:18:56 51°16.808 2°52.737 340.1 12.9 343 12.2
2011-03-16 08:19:01 51°16.825 2°52.729 340.1 12.9 342 11.8
2011-03-16 08:19:06 51°16.842 2°52.721 340 12.9 343 11.6
2011-03-16 08:19:09 51°16.852 2°52.716 340.1 12.9 343 12.1
2011-03-16 08:19:16 51°16.876 2°52.703 340 13 342 11.9
2011-03-16 08:19:21 51°16.893 2°52.694 339.8 12.9 342 11.6
2011-03-16 08:19:26 51°16.91 2°52.686 339.8 12.9 342 11.7
2011-03-16 08:19:30 51°16.924 2°52.679 339.9 12.9 342 12.3
2011-03-16 08:19:35 51°16.941 2°52.67 339.9 13 343 12.1
2011-03-16 08:19:41 51°16.962 2°52.66 340.1 13 343 12.1
2011-03-16 08:19:46 51°16.979 2°52.651 340.1 13 343 12.5
2011-03-16 08:19:51 51°16.996 2°52.643 340.5 13.1 343 12.5
2011-03-16 08:19:55 51°17.01 2°52.636 340.4 13 343 12.5
2011-03-16 08:20:01 51°17.031 2°52.626 340.5 13.1 343 12.3
2011-03-16 08:20:06 51°17.048 2°52.618 340.5 13.1 343 12.6
2011-03-16 08:20:10 51°17.062 2°52.611 340.8 12.9 343 11.4
2011-03-16 08:20:16 51°17.082 2°52.601 340.2 12.9 342 11.7
2011-03-16 08:20:21 51°17.099 2°52.592 339.4 12.9 343 11.7
2011-03-16 08:20:26 51°17.116 2°52.583 339.5 12.9 343 11.7
2011-03-16 08:20:31 51°17.133 2°52.575 339.8 12.9 343 12.2
2011-03-16 08:20:36 51°17.151 2°52.567 340.3 13 344 12.1
2011-03-16 08:20:41 51°17.168 2°52.559 340.8 13 344 12.2
2011-03-16 08:20:46 51°17.186 2°52.552 341.7 13 345 11.9
2011-03-16 08:20:51 51°17.203 2°52.545 341.8 13 345 12.2
2011-03-16 08:20:55 51°17.217 2°52.538 342.2 13 345 12.4
2011-03-16 08:21:01 51°17.238 2°52.529 342.1 13.1 345 12.5
2011-03-16 08:21:06 51°17.255 2°52.521 342 13.1 345 13
2011-03-16 08:21:10 51°17.269 2°52.515 342.2 12.9 344 12
2011-03-16 08:21:16 51°17.29 2°52.506 341.9 12.9 345 12.5
2011-03-16 08:21:21 51°17.307 2°52.499 342 13 345 12.3
2011-03-16 08:21:26 51°17.325 2°52.491 342.2 13 345 12.1
2011-03-16 08:21:30 51°17.339 2°52.485 342.5 13.1 345 12.8
2011-03-16 08:21:36 51°17.36 2°52.476 342.4 13.1 345 12.7
2011-03-16 08:21:41 51°17.377 2°52.47 343.3 13.2 348 12.5
2011-03-16 08:21:46 51°17.395 2°52.464 344.7 13.2 349 12.3
2011-03-16 08:21:50 51°17.41 2°52.461 347 13.2 351 12.5
2011-03-16 08:21:56 51°17.432 2°52.456 349 13.2 352 12.8
2011-03-16 08:22:01 51°17.45 2°52.453 350.3 13.3 354 12.9
2011-03-16 08:22:06 51°17.468 2°52.45 351.3 13.3 354 12.6
2011-03-16 08:22:10 51°17.483 2°52.449 352.4 13.4 356 12.6
2011-03-16 08:22:14 51°17.498 2°52.447 353.2 13.3 356 12.3
2011-03-16 08:22:21 51°17.524 2°52.445 354 13.4 358 13.2
2011-03-16 08:22:25 51°17.538 2°52.444 355.1 13.3 358 12.8
2011-03-16 08:22:30 51°17.557 2°52.444 356.4 13.3 359 12.6
2011-03-16 08:22:34 51°17.572 2°52.444 357.4 13.2 -999 12.9
2011-03-16 08:22:41 51°17.597 2°52.444 358 13.3 -999 13
2011-03-16 08:22:46 51°17.616 2°52.444 358.3 13.3 1 12.7
2011-03-16 08:22:50 51°17.63 2°52.444 358.6 13.3 -999 12.4
2011-03-16 08:22:56 51°17.652 2°52.445 358.7 13.2 1 12.5
2011-03-16 08:23:01 51°17.671 2°52.445 358.6 13.3 1 12.8
2011-03-16 08:23:05 51°17.686 2°52.445 358.9 13.3 1 12.7
2011-03-16 08:23:10 51°17.704 2°52.445 358.9 13.3 1 12.4
2011-03-16 08:23:16 51°17.726 2°52.445 358.9 13.3 -999 13
2011-03-16 08:23:21 51°17.745 2°52.446 359 13.3 1 12.5
2011-03-16 08:23:26 51°17.763 2°52.446 358.7 13.3 -999 12.4
2011-03-16 08:23:30 51°17.778 2°52.446 358.3 13.3 -999 12.6
2011-03-16 08:23:36 51°17.8 2°52.445 358.2 13.3 -999 13
2011-03-16 08:23:41 51°17.819 2°52.445 358.1 13.2 -999 12.5
2011-03-16 08:23:45 51°17.833 2°52.445 358 13.3 -999 12.6
2011-03-16 08:23:49 51°17.848 2°52.445 358 13.2 -999 12.6
2011-03-16 08:23:56 51°17.874 2°52.445 358 13.2 -999 12.9
2011-03-16 08:24:01 51°17.892 2°52.445 357.9 13.2 -999 12.6
2011-03-16 08:24:06 51°17.91 2°52.445 358 13.1 -999 12.4
2011-03-16 08:24:10 51°17.925 2°52.444 358.2 13.1 -999 13.2
2011-03-16 08:24:16 51°17.947 2°52.445 358.4 13.2 -999 12.6
2011-03-16 08:24:21 51°17.965 2°52.445 358.6 13.1 -999 12.7
2011-03-16 08:24:26 51°17.983 2°52.445 358.7 13.2 -999 13
2011-03-16 08:24:30 51°17.998 2°52.445 358.4 13.2 -999 12.7
2011-03-16 08:24:36 51°18.02 2°52.444 358 13.2 -999 13.1
2011-03-16 08:24:41 51°18.038 2°52.444 357.9 13.2 359 13.1
2011-03-16 08:24:45 51°18.053 2°52.444 357.8 13.3 359 12.9
2011-03-16 08:24:51 51°18.075 2°52.443 357.7 13.2 359 12.7
2011-03-16 08:24:55 51°18.089 2°52.443 357.7 13.2 -999 13
2011-03-16 08:25:01 51°18.111 2°52.443 357.9 13.2 -999 13.1
2011-03-16 08:25:06 51°18.129 2°52.443 358.1 13.2 -999 13
2011-03-16 08:25:10 51°18.144 2°52.443 358.5 13.2 -999 13.2
2011-03-16 08:25:16 51°18.166 2°52.443 358.4 13.1 -999 12.9
2011-03-16 08:25:21 51°18.184 2°52.442 358.2 13.2 -999 13.7
2011-03-16 08:25:26 51°18.203 2°52.442 358.2 13.2 -999 13.1
2011-03-16 08:25:31 51°18.221 2°52.442 358 13.1 -999 13.2
2011-03-16 08:25:36 51°18.239 2°52.441 358 13.1 359 12.9
2011-03-16 08:25:41 51°18.257 2°52.441 357.6 13.1 359 13.1
2011-03-16 08:25:46 51°18.275 2°52.44 357.5 13.2 359 13.3
2011-03-16 08:25:50 51°18.29 2°52.44 357.2 13.2 359 13.5
2011-03-16 08:25:56 51°18.311 2°52.439 357.4 13.2 359 13.1
2011-03-16 08:26:01 51°18.33 2°52.439 357.7 13.2 1 13.3
2011-03-16 08:26:06 51°18.348 2°52.44 358.6 13.2 1 13.4
2011-03-16 08:26:10 51°18.363 2°52.44 359.4 13.2 1 13.4
2011-03-16 08:26:16 51°18.385 2°52.442 0.1 13.2 2 13.5
2011-03-16 08:26:21 51°18.403 2°52.443 0.8 13.2 3 13.5
2011-03-16 08:26:26 51°18.422 2°52.444 1 13.3 3 13.7
2011-03-16 08:26:30 51°18.436 2°52.446 1.2 13.3 3 13.9
2011-03-16 08:26:36 51°18.459 2°52.447 1.5 13.3 3 13.7
2011-03-16 08:26:41 51°18.477 2°52.448 1.4 13.3 2 13.7
2011-03-16 08:26:46 51°18.495 2°52.449 0.9 13.3 2 13.9
2011-03-16 08:26:51 51°18.514 2°52.45 0.7 13.3 2 13.5
2011-03-16 08:26:56 51°18.532 2°52.45 0.2 13.2 1 13.8
2011-03-16 08:27:01 51°18.551 2°52.451 0.1 13.2 1 14.2
2011-03-16 08:27:06 51°18.569 2°52.452 0.1 13.2 1 14
2011-03-16 08:27:11 51°18.587 2°52.452 359.8 13.3 1 13.7
2011-03-16 08:27:15 51°18.602 2°52.452 359.8 13.2 1 14.2
2011-03-16 08:27:21 51°18.624 2°52.453 359.8 13.3 1 14
2011-03-16 08:27:26 51°18.642 2°52.453 0.3 13.3 1 14
2011-03-16 08:27:31 51°18.66 2°52.454 0.6 13.2 2 14.1
2011-03-16 08:27:35 51°18.675 2°52.455 0.8 13.2 2 14.5
2011-03-16 08:27:41 51°18.697 2°52.456 1 13.3 2 14.6
2011-03-16 08:27:46 51°18.715 2°52.458 1.5 13.2 3 14.1
2011-03-16 08:27:50 51°18.73 2°52.458 1.3 13.1 2 14.2
2011-03-16 08:27:56 51°18.752 2°52.46 1 13.2 2 14.6
2011-03-16 08:28:01 51°18.77 2°52.461 0.7 13.3 2 14.7
2011-03-16 08:28:06 51°18.789 2°52.462 0.8 13.2 2 14.6
2011-03-16 08:28:10 51°18.803 2°52.463 0.8 13.2 2 14.6
2011-03-16 08:28:16 51°18.825 2°52.464 0.8 13.3 2 14.7
2011-03-16 08:28:20 51°18.84 2°52.465 0.8 13.2 2 14.6
2011-03-16 08:28:26 51°18.862 2°52.465 0.8 13.2 2 15
2011-03-16 08:28:30 51°18.876 2°52.466 0.8 13.2 2 15
2011-03-16 08:28:35 51°18.894 2°52.466 0.8 13.3 2 14.9
2011-03-16 08:28:41 51°18.916 2°52.467 0.7 13.2 2 15.1
2011-03-16 08:28:46 51°18.935 2°52.468 0.8 13.2 2 15.3
2011-03-16 08:28:51 51°18.953 2°52.469 0.7 13.2 1 15.4
2011-03-16 08:28:55 51°18.967 2°52.469 0.7 13.3 2 15.1
2011-03-16 08:29:00 51°18.986 2°52.47 0.3 13.2 1 15.3
2011-03-16 08:29:06 51°19.008 2°52.471 0.4 13.2 1 15.2
2011-03-16 08:29:09 51°19.019 2°52.471 0.4 13.1 1 15.9
2011-03-16 08:29:16 51°19.044 2°52.472 0.3 13.2 1 15.7
2011-03-16 08:29:21 51°19.063 2°52.473 0.2 13.3 1 15.9
2011-03-16 08:29:26 51°19.081 2°52.473 0.4 13.3 1 15.4
2011-03-16 08:29:30 51°19.096 2°52.474 0.6 13.1 2 15.9
2011-03-16 08:29:36 51°19.117 2°52.475 0.7 13.1 2 16.2
2011-03-16 08:29:41 51°19.136 2°52.476 0.6 13.2 2 16.1
2011-03-16 08:29:46 51°19.154 2°52.477 0.8 13.2 2 16.1
2011-03-16 08:29:51 51°19.172 2°52.478 0.8 13.2 2 16.3
2011-03-16 08:29:55 51°19.187 2°52.479 0.8 13.3 2 16.4
2011-03-16 08:30:01 51°19.209 2°52.479 0.8 13.3 1 16.4
2011-03-16 08:30:06 51°19.228 2°52.481 0.7 13.2 2 16.6
2011-03-16 08:30:10 51°19.242 2°52.481 0.8 13.2 1 16.6
2011-03-16 08:30:16 51°19.265 2°52.482 0.8 13.2 2 16.8
2011-03-16 08:30:21 51°19.283 2°52.483 0.9 13.3 1 16.8
2011-03-16 08:30:25 51°19.298 2°52.484 0.9 13.3 2 16.9
2011-03-16 08:30:30 51°19.316 2°52.485 0.7 13.3 1 16.9
2011-03-16 08:30:36 51°19.338 2°52.485 0.4 13.2 1 17.2
2011-03-16 08:30:41 51°19.357 2°52.485 0.2 13.2 1 17
2011-03-16 08:30:46 51°19.375 2°52.486 359.9 13.2 -999 17
2011-03-16 08:30:50 51°19.39 2°52.486 359.9 13.2 1 17.1
2011-03-16 08:30:56 51°19.412 2°52.486 359.9 13.3 -999 17.2
2011-03-16 08:31:01 51°19.43 2°52.487 -999 13.2 1 17
2011-03-16 08:31:06 51°19.449 2°52.487 0.2 13.3 1 17.4
2011-03-16 08:31:10 51°19.464 2°52.488 0.4 13.3 1 17.4
2011-03-16 08:31:15 51°19.482 2°52.488 0.5 13.3 1 17.7
2011-03-16 08:31:21 51°19.504 2°52.489 0.8 13.3 1 17.4
2011-03-16 08:31:26 51°19.523 2°52.49 0.9 13.2 1 17.5
2011-03-16 08:31:31 51°19.541 2°52.49 0.8 13.3 1 17.7
2011-03-16 08:31:34 51°19.552 2°52.49 0.7 13.2 1 17.7
2011-03-16 08:31:41 51°19.578 2°52.491 0.4 13.2 -999 17.9
2011-03-16 08:31:46 51°19.596 2°52.491 0.1 13.2 -999 18
2011-03-16 08:31:51 51°19.615 2°52.491 359.7 13.4 -999 17.9
2011-03-16 08:31:56 51°19.633 2°52.491 359.9 13.3 1 17.7
2011-03-16 08:32:01 51°19.652 2°52.492 0.1 13.3 1 18.2
2011-03-16 08:32:06 51°19.67 2°52.492 0.1 13.3 1 18
2011-03-16 08:32:11 51°19.688 2°52.492 0.1 13.3 -999 18.5
2011-03-16 08:32:16 51°19.707 2°52.492 359.9 13.3 -999 18.3
2011-03-16 08:32:21 51°19.725 2°52.492 359.9 13.4 1 18.2
2011-03-16 08:32:26 51°19.743 2°52.492 0.1 13.3 -999 18
2011-03-16 08:32:30 51°19.758 2°52.493 0.1 13.3 1 18.3
2011-03-16 08:32:36 51°19.781 2°52.493 0.2 13.4 -999 18.5
2011-03-16 08:32:41 51°19.799 2°52.493 0.1 13.2 1 18
2011-03-16 08:32:46 51°19.817 2°52.494 0.4 13.3 1 18.2
2011-03-16 08:32:50 51°19.832 2°52.494 0.4 13.3 1 18.2
2011-03-16 08:32:56 51°19.854 2°52.495 0.7 13.3 1 18.6
2011-03-16 08:33:01 51°19.873 2°52.495 0.7 13.4 1 18.7
2011-03-16 08:33:06 51°19.891 2°52.496 0.4 13.4 1 18.2
2011-03-16 08:33:10 51°19.906 2°52.496 0.7 13.4 1 18.5
2011-03-16 08:33:16 51°19.928 2°52.497 0.7 13.3 1 18.4
2011-03-16 08:33:21 51°19.947 2°52.497 0.6 13.4 1 18.9
2011-03-16 08:33:26 51°19.965 2°52.497 0.6 13.3 1 18.4
2011-03-16 08:33:30 51°19.98 2°52.497 0.4 13.2 -999 18.5
2011-03-16 08:33:35 51°19.998 2°52.498 0.1 13.3 -999 18.6
2011-03-16 08:33:41 51°20.021 2°52.498 -999 13.3 -999 18.5
2011-03-16 08:33:46 51°20.039 2°52.498 359.6 13.4 -999 18.8
2011-03-16 08:33:51 51°20.057 2°52.498 359.9 13.3 1 18.3
2011-03-16 08:33:56 51°20.076 2°52.499 0.3 13.3 1 19
2011-03-16 08:34:01 51°20.094 2°52.499 0.3 13.3 -999 18.5
2011-03-16 08:34:06 51°20.113 2°52.499 0.1 13.3 -999 18.3
2011-03-16 08:34:11 51°20.131 2°52.499 0.1 13.3 -999 18.6
2011-03-16 08:34:16 51°20.15 2°52.499 0.1 13.3 -999 18.2
2011-03-16 08:34:21 51°20.168 2°52.499 0.1 13.3 -999 18.4
2011-03-16 08:34:26 51°20.187 2°52.499 0.2 13.4 -999 18.7
2011-03-16 08:34:31 51°20.205 2°52.5 0.2 13.4 -999 18.6
2011-03-16 08:34:36 51°20.224 2°52.5 0.4 13.4 -999 18.6
2011-03-16 08:34:41 51°20.243 2°52.5 0.4 13.3 -999 18.2
2011-03-16 08:34:46 51°20.261 2°52.5 0.2 13.2 -999 18.3
2011-03-16 08:34:50 51°20.275 2°52.5 0.1 13.3 359 18.8
2011-03-16 08:34:56 51°20.298 2°52.5 -999 13.4 -999 18.3
2011-03-16 08:35:01 51°20.316 2°52.499 359.8 13.3 359 18.3
2011-03-16 08:35:06 51°20.335 2°52.499 -999 13.3 -999 18.5
2011-03-16 08:35:10 51°20.349 2°52.499 359.9 13.3 -999 18.5
2011-03-16 08:35:16 51°20.372 2°52.499 359.8 13.3 -999 18
2011-03-16 08:35:21 51°20.39 2°52.499 359.9 13.3 1 18
2011-03-16 08:35:25 51°20.405 2°52.5 0.4 13.3 1 18
2011-03-16 08:35:30 51°20.423 2°52.501 0.8 13.3 1 18.4
2011-03-16 08:35:36 51°20.446 2°52.502 0.9 13.3 1 17.9
2011-03-16 08:35:41 51°20.464 2°52.502 0.8 13.3 1 18
2011-03-16 08:35:46 51°20.483 2°52.502 0.6 13.4 -999 18
2011-03-16 08:35:50 51°20.498 2°52.502 0.4 13.4 -999 17.9
2011-03-16 08:35:55 51°20.516 2°52.502 0.1 13.5 -999 17.9
2011-03-16 08:36:01 51°20.538 2°52.503 0.1 13.5 1 17.9
2011-03-16 08:36:06 51°20.557 2°52.503 0.3 13.4 -999 17.2
2011-03-16 08:36:10 51°20.572 2°52.503 0.4 13.4 1 17.6
2011-03-16 08:36:15 51°20.59 2°52.503 0.6 13.4 1 17.6
2011-03-16 08:36:21 51°20.612 2°52.504 0.8 13.4 1 17.6
2011-03-16 08:36:26 51°20.631 2°52.505 0.8 13.3 1 17.4
2011-03-16 08:36:31 51°20.649 2°52.505 0.8 13.3 1 17.4
2011-03-16 08:36:36 51°20.668 2°52.505 0.8 13.4 1 17.1
2011-03-16 08:36:41 51°20.686 2°52.506 0.8 13.4 1 16.7
2011-03-16 08:36:46 51°20.705 2°52.507 0.8 13.2 1 16.9
2011-03-16 08:36:51 51°20.723 2°52.507 0.9 12.9 1 17.4
2011-03-16 08:36:56 51°20.74 2°52.507 0.8 12.6 -999 17.3
2011-03-16 08:37:01 51°20.757 2°52.507 0.4 12.2 1 16.9
2011-03-16 08:37:06 51°20.774 2°52.508 0.4 11.8 1 16.9
2011-03-16 08:37:10 51°20.786 2°52.508 0.6 11.5 1 17.4
2011-03-16 08:37:16 51°20.805 2°52.509 0.7 11.1 1 16.8
2011-03-16 08:37:21 51°20.82 2°52.51 0.8 10.7 1 17
2011-03-16 08:37:26 51°20.834 2°52.511 0.9 10.6 2 17.2
2011-03-16 08:37:30 51°20.846 2°52.511 1.2 10.4 2 17
2011-03-16 08:37:36 51°20.862 2°52.513 1.4 10.1 3 16.9
2011-03-16 08:37:41 51°20.876 2°52.514 1.7 10.1 3 17.4
2011-03-16 08:37:46 51°20.89 2°52.515 1.8 10 4 17.3
2011-03-16 08:37:50 51°20.901 2°52.516 2.4 9.9 4 17.6
2011-03-16 08:37:56 51°20.917 2°52.518 3.2 9.8 5 17.7
2011-03-16 08:38:01 51°20.931 2°52.52 3.7 9.8 5 17.8
2011-03-16 08:38:06 51°20.944 2°52.522 4.2 9.7 5 17.8
2011-03-16 08:38:11 51°20.957 2°52.524 4.4 9.5 6 17.4
2011-03-16 08:38:15 51°20.967 2°52.526 4.6 9.4 5 17.7
2011-03-16 08:38:21 51°20.983 2°52.528 4.6 9.5 6 17.6
2011-03-16 08:38:26 51°20.996 2°52.531 4.6 9.4 6 17.6
2011-03-16 08:38:31 51°21.009 2°52.533 4.6 9.4 6 18.1
2011-03-16 08:38:36 51°21.022 2°52.535 4.7 9.4 7 18.1
2011-03-16 08:38:41 51°21.035 2°52.538 4.9 9.4 6 17.8
2011-03-16 08:38:46 51°21.048 2°52.54 5 9.4 6 18
2011-03-16 08:38:51 51°21.061 2°52.542 4.9 9.4 6 18.1
2011-03-16 08:38:56 51°21.074 2°52.544 4.6 9.4 6 18.1
2011-03-16 08:39:01 51°21.087 2°52.546 4.5 9.4 6 18
2011-03-16 08:39:06 51°21.1 2°52.548 4.6 9.4 6 18.3
2011-03-16 08:39:11 51°21.113 2°52.551 4.7 9.4 6 17.9
2011-03-16 08:39:16 51°21.126 2°52.553 4.6 9.4 6 18.1
2011-03-16 08:39:21 51°21.139 2°52.555 4.5 9.4 6 18.3
2011-03-16 08:39:26 51°21.152 2°52.557 4.4 9.4 6 18.3
2011-03-16 08:39:30 51°21.162 2°52.559 4.5 9.4 7 18.2
2011-03-16 08:39:35 51°21.175 2°52.562 5.2 9.4 7 18.3
2011-03-16 08:39:41 51°21.191 2°52.566 6.3 9.4 9 18.2
2011-03-16 08:39:46 51°21.204 2°52.569 7.5 9.4 10 18.1
2011-03-16 08:39:50 51°21.214 2°52.572 8.3 9.5 10 18.5
2011-03-16 08:39:56 51°21.229 2°52.577 8.7 9.5 11 18.6
2011-03-16 08:40:01 51°21.242 2°52.581 9.3 9.5 11 18.5
2011-03-16 08:40:06 51°21.255 2°52.585 9.6 9.5 11 18.6
2011-03-16 08:40:10 51°21.266 2°52.588 9.9 9.5 11 18.6
2011-03-16 08:40:16 51°21.281 2°52.593 10.2 9.6 12 18.5
2011-03-16 08:40:21 51°21.294 2°52.598 10.3 9.6 12 19
2011-03-16 08:40:25 51°21.305 2°52.601 10.3 9.6 12 18.8
2011-03-16 08:40:30 51°21.318 2°52.606 10.4 9.5 12 19
2011-03-16 08:40:34 51°21.328 2°52.609 10.2 9.5 12 19.1
2011-03-16 08:40:41 51°21.346 2°52.615 10.2 9.5 12 19
2011-03-16 08:40:45 51°21.357 2°52.619 10.2 9.5 12 19.3
2011-03-16 08:40:50 51°21.369 2°52.623 10.2 9.5 12 19.5
2011-03-16 08:40:56 51°21.385 2°52.628 9.8 9.5 11 19.5
2011-03-16 08:41:01 51°21.398 2°52.631 9.3 9.5 11 19.3
2011-03-16 08:41:05 51°21.408 2°52.634 9 9.5 10 19.7
2011-03-16 08:41:10 51°21.421 2°52.638 8.8 9.5 10 19.5
2011-03-16 08:41:16 51°21.437 2°52.643 8.8 9.6 10 19.5
2011-03-16 08:41:21 51°21.45 2°52.646 9 9.5 10 20
2011-03-16 08:41:25 51°21.46 2°52.649 9.1 9.5 11 20.3
2011-03-16 08:41:29 51°21.47 2°52.653 9 9.5 11 20
2011-03-16 08:41:36 51°21.488 2°52.658 9.4 9.3 12 19.7
2011-03-16 08:41:41 51°21.501 2°52.662 9.9 9.3 12 19.8
2011-03-16 08:41:45 51°21.511 2°52.666 10.2 9.3 12 21
2011-03-16 08:41:49 51°21.521 2°52.669 10.3 9.3 11 20.6
2011-03-16 08:41:54 51°21.534 2°52.673 10.5 9.3 12 20.6
2011-03-16 08:42:01 51°21.552 2°52.679 10.2 9.3 11 20.9
2011-03-16 08:42:05 51°21.562 2°52.682 9.8 9.3 10 20.9
2011-03-16 08:42:09 51°21.572 2°52.685 9.2 9.4 10 21
2011-03-16 08:42:16 51°21.59 2°52.69 9.1 9.3 11 21.4
2011-03-16 08:42:21 51°21.603 2°52.694 9.1 9.4 10 21.7
2011-03-16 08:42:26 51°21.616 2°52.698 9.4 9.3 10 21.9
2011-03-16 08:42:30 51°21.626 2°52.701 9.2 9.8 10 21.7
2011-03-16 08:42:36 51°21.644 2°52.705 9.4 10.5 10 21.6
2011-03-16 08:42:41 51°21.659 2°52.71 9.5 11.2 10 21.8
2011-03-16 08:42:45 51°21.672 2°52.713 9.5 11.7 10 21.8
2011-03-16 08:42:50 51°21.689 2°52.717 9.3 12.2 9 21.7
2011-03-16 08:42:54 51°21.702 2°52.721 9 12.5 9 22
2011-03-16 08:43:01 51°21.727 2°52.727 9 12.8 9 22.3
2011-03-16 08:43:05 51°21.741 2°52.731 9 13.1 9 22.8
2011-03-16 08:43:10 51°21.759 2°52.735 9 13.2 9 22.3
2011-03-16 08:43:14 51°21.774 2°52.739 8.9 13.2 9 22.9
2011-03-16 08:43:21 51°21.8 2°52.745 8.9 13.4 9 23.1
2011-03-16 08:43:25 51°21.814 2°52.749 9.4 13.5 9 23.3
2011-03-16 08:43:29 51°21.829 2°52.753 9.7 13.5 9 23.6
2011-03-16 08:43:36 51°21.855 2°52.76 9.5 13.6 9 23.8
2011-03-16 08:43:41 51°21.874 2°52.764 9.3 13.6 9 24.3
2011-03-16 08:43:46 51°21.893 2°52.769 9.3 13.6 9 24.4
2011-03-16 08:43:49 51°21.904 2°52.772 9.3 13.7 9 24.4
2011-03-16 08:43:55 51°21.926 2°52.778 9.5 13.7 10 24.6
2011-03-16 08:44:01 51°21.949 2°52.784 9.8 13.7 10 24.6
2011-03-16 08:44:05 51°21.964 2°52.788 10 13.6 10 25.2
2011-03-16 08:44:09 51°21.978 2°52.792 9.5 13.6 10 25.6
2011-03-16 08:44:16 51°22.005 2°52.8 9.6 13.7 11 25.2
2011-03-16 08:44:21 51°22.023 2°52.805 9.6 13.5 9 25.1
2011-03-16 08:44:25 51°22.038 2°52.808 9.2 13.6 8 25.4
2011-03-16 08:44:30 51°22.057 2°52.812 8.4 13.6 8 25.6
2011-03-16 08:44:36 51°22.079 2°52.817 8.4 13.6 8 25.7
2011-03-16 08:44:41 51°22.098 2°52.821 8.8 13.6 9 26.2
2011-03-16 08:44:45 51°22.113 2°52.825 8.8 13.6 8 26.4
2011-03-16 08:44:50 51°22.131 2°52.829 8.8 13.7 9 26.3
2011-03-16 08:44:56 51°22.154 2°52.835 9.1 13.6 9 26.4
2011-03-16 08:45:01 51°22.173 2°52.84 9.5 13.7 9 26
2011-03-16 08:45:06 51°22.191 2°52.845 9.8 13.7 9 26.5
2011-03-16 08:45:11 51°22.21 2°52.85 9.5 13.8 9 26.5
2011-03-16 08:45:15 51°22.225 2°52.854 9.5 13.7 10 26
2011-03-16 08:45:21 51°22.248 2°52.86 9.8 13.6 9 26.7
2011-03-16 08:45:26 51°22.266 2°52.864 9.7 13.7 9 26.7
2011-03-16 08:45:31 51°22.285 2°52.869 9.6 13.7 9 26.5
2011-03-16 08:45:36 51°22.304 2°52.874 9.5 13.7 9 26.6
2011-03-16 08:45:41 51°22.322 2°52.878 9.5 13.7 9 25.8
2011-03-16 08:45:45 51°22.337 2°52.881 9.3 13.6 8 26.3
2011-03-16 08:45:50 51°22.356 2°52.886 9.4 13.7 9 26.2
2011-03-16 08:45:56 51°22.379 2°52.892 9.5 13.7 9 25.6
2011-03-16 08:46:01 51°22.397 2°52.896 9.8 13.5 9 25.3
2011-03-16 08:46:06 51°22.416 2°52.901 9.6 13.5 9 25.6
2011-03-16 08:46:10 51°22.431 2°52.905 9.5 13.6 9 25.4
2011-03-16 08:46:16 51°22.453 2°52.91 9.3 13.6 8 25.3
2011-03-16 08:46:21 51°22.472 2°52.914 8.8 13.6 8 25.2
2011-03-16 08:46:26 51°22.491 2°52.918 8.7 13.7 8 24.7
2011-03-16 08:46:30 51°22.506 2°52.922 9.4 13.7 9 25.1
2011-03-16 08:46:36 51°22.529 2°52.928 9.5 13.7 9 25.4
2011-03-16 08:46:41 51°22.547 2°52.932 9.8 13.6 9 24.7
2011-03-16 08:46:46 51°22.566 2°52.937 9.5 13.7 8 25
2011-03-16 08:46:49 51°22.577 2°52.94 9.4 13.7 10 24.7
2011-03-16 08:46:55 51°22.6 2°52.945 9.9 13.7 8 24.7
2011-03-16 08:47:01 51°22.623 2°52.95 9.2 13.7 8 25.5
2011-03-16 08:47:06 51°22.641 2°52.955 8.9 13.6 9 25.7
2011-03-16 08:47:11 51°22.66 2°52.958 8.5 13.7 7 25.3
2011-03-16 08:47:14 51°22.671 2°52.961 8.7 13.7 8 24.6
2011-03-16 08:47:21 51°22.698 2°52.967 8.5 13.7 8 25.3
2011-03-16 08:47:26 51°22.716 2°52.971 8.6 13.8 8 24.9
2011-03-16 08:47:30 51°22.732 2°52.974 9 13.8 7 25.1
2011-03-16 08:47:36 51°22.754 2°52.979 8.8 13.7 9 25
2011-03-16 08:47:41 51°22.773 2°52.983 9.2 13.7 8 25.3
2011-03-16 08:47:46 51°22.792 2°52.988 9.7 13.8 8 25.3
2011-03-16 08:47:51 51°22.811 2°52.992 9.3 13.7 8 24.1
2011-03-16 08:47:56 51°22.829 2°52.997 9.4 13.6 8 23.2
2011-03-16 08:48:01 51°22.848 2°53.002 9.5 13.7 9 25.2
2011-03-16 08:48:06 51°22.867 2°53.006 9.1 13.7 7 25.6
2011-03-16 08:48:10 51°22.882 2°53.009 9.6 13.8 8 25.4
2011-03-16 08:48:16 51°22.905 2°53.014 8.4 13.8 7 25.1
2011-03-16 08:48:20 51°22.92 2°53.017 8.8 13.8 8 25.1
2011-03-16 08:48:26 51°22.943 2°53.022 8.8 13.7 7 25.1
2011-03-16 08:48:29 51°22.954 2°53.025 9.4 13.8 9 25
2011-03-16 08:48:36 51°22.98 2°53.031 9.8 13.7 7 24.6
2011-03-16 08:48:41 51°22.999 2°53.035 9 13.7 8 24.6
2011-03-16 08:48:46 51°23.018 2°53.039 8.4 13.8 7 24.6
2011-03-16 08:48:50 51°23.034 2°53.042 8.9 13.8 8 23.5
2011-03-16 08:48:56 51°23.056 2°53.046 9.1 13.8 7 25.1
2011-03-16 08:49:00 51°23.072 2°53.05 9 13.9 8 25.2
2011-03-16 08:49:06 51°23.095 2°53.055 8.8 13.9 8 25
2011-03-16 08:49:11 51°23.114 2°53.06 9.8 13.8 9 24.1
2011-03-16 08:49:15 51°23.129 2°53.064 9.9 13.8 8 24
2011-03-16 08:49:21 51°23.151 2°53.069 10.2 13.8 8 24
2011-03-16 08:49:26 51°23.17 2°53.073 9.3 13.8 7 24.1
2011-03-16 08:49:30 51°23.185 2°53.077 9.9 13.8 9 23.4
2011-03-16 08:49:35 51°23.204 2°53.081 9.2 13.9 7 23.2
2011-03-16 08:49:40 51°23.223 2°53.086 9.7 13.7 9 22.5
2011-03-16 08:49:46 51°23.246 2°53.091 9.6 13.8 7 23.2
2011-03-16 08:49:51 51°23.265 2°53.095 9.2 13.8 8 23.3
2011-03-16 08:49:56 51°23.284 2°53.099 9 13.8 7 22.8
2011-03-16 08:50:01 51°23.303 2°53.103 9.1 13.8 8 23.1
2011-03-16 08:50:06 51°23.322 2°53.107 8.8 13.9 7 22.7
2011-03-16 08:50:10 51°23.337 2°53.111 8.9 13.7 8 22.7
2011-03-16 08:50:16 51°23.36 2°53.115 8.9 13.8 6 21.3
2011-03-16 08:50:21 51°23.379 2°53.119 8.8 13.9 8 23.3
2011-03-16 08:50:26 51°23.398 2°53.123 9 13.9 7 23.1
2011-03-16 08:50:30 51°23.413 2°53.127 8.8 13.9 8 23
2011-03-16 08:50:35 51°23.432 2°53.13 8.8 13.9 7 23.9
2011-03-16 08:50:41 51°23.455 2°53.136 8.9 14 8 24.1
2011-03-16 08:50:45 51°23.471 2°53.139 9.4 13.9 7 23.9
2011-03-16 08:50:49 51°23.486 2°53.142 9.2 13.8 8 23.1
2011-03-16 08:50:56 51°23.513 2°53.149 9.7 13.9 9 23.4
2011-03-16 08:51:00 51°23.528 2°53.152 9.5 14 8 24.1
2011-03-16 08:51:06 51°23.551 2°53.157 9.4 14 8 24.6
2011-03-16 08:51:09 51°23.562 2°53.159 9.5 14 8 24.4
2011-03-16 08:51:16 51°23.589 2°53.166 9.5 13.9 8 23
2011-03-16 08:51:21 51°23.609 2°53.17 9.5 14 8 23.8
2011-03-16 08:51:25 51°23.624 2°53.174 9.8 14 8 24.4
2011-03-16 08:51:30 51°23.643 2°53.178 9.5 14 7 23.9
2011-03-16 08:51:35 51°23.662 2°53.181 9.1 13.9 7 24.3
2011-03-16 08:51:41 51°23.685 2°53.186 9 14 8 24.2
2011-03-16 08:51:46 51°23.704 2°53.191 9.5 13.9 9 23.9
2011-03-16 08:51:51 51°23.723 2°53.196 10.2 13.8 10 23.5
2011-03-16 08:51:54 51°23.734 2°53.199 10.3 13.8 9 23.8
2011-03-16 08:52:01 51°23.761 2°53.206 10.3 13.9 9 23.3
2011-03-16 08:52:06 51°23.78 2°53.21 10.2 13.8 8 23.7
2011-03-16 08:52:10 51°23.795 2°53.214 9.5 13.8 8 23
2011-03-16 08:52:16 51°23.817 2°53.218 9.2 13.8 7 23.1
2011-03-16 08:52:21 51°23.836 2°53.223 8.9 13.6 8 23
2011-03-16 08:52:26 51°23.855 2°53.226 8.6 13.6 7 23.8
2011-03-16 08:52:29 51°23.866 2°53.229 8.9 13.7 9 22.9
2011-03-16 08:52:35 51°23.889 2°53.235 9.5 13.6 9 22.8
2011-03-16 08:52:40 51°23.908 2°53.239 9.6 13.7 8 22.9
2011-03-16 08:52:46 51°23.93 2°53.244 9.5 13.7 8 22.6
2011-03-16 08:52:49 51°23.942 2°53.247 9.1 13.8 8 21.8
2011-03-16 08:52:55 51°23.964 2°53.252 9.1 13.8 8 22.3
2011-03-16 08:53:00 51°23.983 2°53.255 9 13.7 7 22.5
2011-03-16 08:53:05 51°24.002 2°53.259 8.4 13.7 8 22.5
2011-03-16 08:53:10 51°24.021 2°53.263 9 13.7 8 21.1
2011-03-16 08:53:14 51°24.036 2°53.266 9 13.8 8 22
2011-03-16 08:53:21 51°24.063 2°53.273 9.5 13.8 9 22
2011-03-16 08:53:26 51°24.081 2°53.277 10.1 13.7 8 21.7
2011-03-16 08:53:30 51°24.097 2°53.281 9.9 13.8 8 21.4
2011-03-16 08:53:34 51°24.112 2°53.285 9.8 13.8 8 21.2
2011-03-16 08:53:41 51°24.138 2°53.29 9.8 13.9 7 21.2
2011-03-16 08:53:45 51°24.154 2°53.294 9.3 13.9 9 21
2011-03-16 08:53:50 51°24.172 2°53.298 9.8 13.7 8 20
2011-03-16 08:53:55 51°24.191 2°53.302 9.5 13.7 8 18.6
2011-03-16 08:54:01 51°24.214 2°53.307 9.5 13.9 8 19.7
2011-03-16 08:54:05 51°24.229 2°53.31 9.1 13.8 7 19.2
2011-03-16 08:54:11 51°24.252 2°53.315 8.8 13.8 8 18.9
2011-03-16 08:54:16 51°24.271 2°53.319 8.9 13.8 8 19.6
2011-03-16 08:54:21 51°24.29 2°53.324 9.3 13.8 8 19.5
2011-03-16 08:54:25 51°24.305 2°53.327 9.5 13.9 8 19.9
2011-03-16 08:54:29 51°24.32 2°53.331 9.5 13.9 8 19.2
2011-03-16 08:54:36 51°24.347 2°53.336 9.5 13.8 8 19.1
2011-03-16 08:54:41 51°24.366 2°53.341 9.4 13.9 8 19.9
2011-03-16 08:54:45 51°24.381 2°53.345 9.8 13.8 8 20.5
2011-03-16 08:54:50 51°24.4 2°53.349 10 13.9 8 19.6
2011-03-16 08:54:56 51°24.423 2°53.354 10.1 13.9 8 19.4
2011-03-16 08:55:00 51°24.438 2°53.358 10 13.8 9 20.9
2011-03-16 08:55:05 51°24.457 2°53.363 10.3 13.9 8 21.2
2011-03-16 08:55:09 51°24.473 2°53.366 9.6 13.9 8 20.2
2011-03-16 08:55:16 51°24.499 2°53.373 10.2 13.9 9 21.2
2011-03-16 08:55:21 51°24.518 2°53.377 10.2 13.9 8 21.7
2011-03-16 08:55:25 51°24.534 2°53.381 10.1 13.9 8 21.5
2011-03-16 08:55:29 51°24.549 2°53.384 9.4 13.8 8 22.1
2011-03-16 08:55:34 51°24.568 2°53.388 9.3 13.9 8 21.9
2011-03-16 08:55:41 51°24.594 2°53.395 9.5 13.8 9 22.1
2011-03-16 08:55:45 51°24.609 2°53.399 9.8 13.8 8 22.9
2011-03-16 08:55:50 51°24.628 2°53.402 9.6 13.8 7 22.6
2011-03-16 08:55:54 51°24.643 2°53.406 8.9 13.8 7 21.7
2011-03-16 08:56:01 51°24.67 2°53.411 8.9 13.8 8 19.5
2011-03-16 08:56:05 51°24.685 2°53.414 9.2 13.8 8 20.3
2011-03-16 08:56:09 51°24.7 2°53.418 9.7 13.7 8 21
2011-03-16 08:56:16 51°24.726 2°53.424 9.7 13.8 7 18.6
2011-03-16 08:56:21 51°24.745 2°53.428 9.1 13.8 8 19.5
2011-03-16 08:56:25 51°24.761 2°53.431 9.5 13.8 7 20.6
2011-03-16 08:56:30 51°24.78 2°53.435 9.2 13.8 8 21.3
2011-03-16 08:56:36 51°24.802 2°53.439 9 13.8 7 21.5
2011-03-16 08:56:41 51°24.821 2°53.443 9 13.8 8 21.9
2011-03-16 08:56:45 51°24.837 2°53.446 9.4 13.7 7 21.2
2011-03-16 08:56:50 51°24.856 2°53.45 9.5 13.7 8 19.5
2011-03-16 08:56:54 51°24.871 2°53.454 9.8 13.7 8 21.1
2011-03-16 08:57:01 51°24.897 2°53.46 9.9 13.7 9 20.8
2011-03-16 08:57:05 51°24.912 2°53.463 9.9 13.7 7 21.6
2011-03-16 08:57:10 51°24.931 2°53.467 9.2 13.7 7 21.2
2011-03-16 08:57:15 51°24.95 2°53.471 9.2 13.7 7 21.7
2011-03-16 08:57:20 51°24.968 2°53.475 9 13.7 7 21.3
2011-03-16 08:57:25 51°24.987 2°53.478 9.4 13.7 7 21.4
2011-03-16 08:57:29 51°25.002 2°53.481 9.5 13.7 7 22
2011-03-16 08:57:35 51°25.025 2°53.486 9.5 13.6 8 22.8
2011-03-16 08:57:40 51°25.044 2°53.49 9.5 13.7 7 23.2
2011-03-16 08:57:45 51°25.062 2°53.494 9.4 13.7 7 23.3
2011-03-16 08:57:49 51°25.078 2°53.496 8.9 13.6 5 23.4
2011-03-16 08:57:56 51°25.104 2°53.5 8.5 13.5 5 24.1
2011-03-16 08:58:01 51°25.122 2°53.503 8.3 13.5 6 23.5
2011-03-16 08:58:05 51°25.137 2°53.505 8.5 13.5 6 22.5
2011-03-16 08:58:10 51°25.156 2°53.509 8.8 13.5 7 23
2011-03-16 08:58:14 51°25.171 2°53.512 9.5 13.5 7 23.3
2011-03-16 08:58:21 51°25.197 2°53.517 9 13.5 6 23
2011-03-16 08:58:25 51°25.212 2°53.52 9.3 13.5 7 23.8
2011-03-16 08:58:30 51°25.23 2°53.523 9.5 13.6 8 23.8
2011-03-16 08:58:34 51°25.245 2°53.527 10.1 13.6 7 23.5
2011-03-16 08:58:41 51°25.272 2°53.531 9.5 13.5 6 23.5
2011-03-16 08:58:45 51°25.286 2°53.533 8.8 13.5 5 23.5
2011-03-16 08:58:50 51°25.305 2°53.536 8.4 13.7 5 23.2
2011-03-16 08:58:56 51°25.328 2°53.539 8.3 13.5 5 23.2
2011-03-16 08:59:01 51°25.346 2°53.542 8.7 13.6 6 23.8
2011-03-16 08:59:05 51°25.362 2°53.545 8.8 13.7 6 24.2
2011-03-16 08:59:10 51°25.38 2°53.549 9.5 13.7 7 24.6
2011-03-16 08:59:16 51°25.403 2°53.553 9.5 13.7 6 24.9
2011-03-16 08:59:21 51°25.421 2°53.557 9.8 13.4 8 24.8
2011-03-16 08:59:25 51°25.436 2°53.559 10.1 13.4 7 25.7
2011-03-16 08:59:29 51°25.451 2°53.562 9.7 13.5 7 25.8
2011-03-16 08:59:36 51°25.477 2°53.568 9.7 13.5 7 25.3
2011-03-16 08:59:40 51°25.492 2°53.57 9.6 13.5 6 25.9
2011-03-16 08:59:45 51°25.511 2°53.573 9 13.5 6 26.5
2011-03-16 08:59:49 51°25.526 2°53.576 8.7 13.6 6 27
2011-03-16 08:59:56 51°25.552 2°53.58 8.8 13.7 6 27
2011-03-16 09:00:01 51°25.571 2°53.584 9.4 13.7 6 27.5
2011-03-16 09:00:05 51°25.586 2°53.586 8.9 13.6 6 27.6
2011-03-16 09:00:09 51°25.601 2°53.589 8.8 13.6 6 27.6
2011-03-16 09:00:16 51°25.627 2°53.593 8.7 13.7 6 28
2011-03-16 09:00:21 51°25.646 2°53.597 8.8 13.6 6 28
2011-03-16 09:00:26 51°25.665 2°53.599 8.7 13.6 6 28.1
2011-03-16 09:00:31 51°25.684 2°53.603 8.6 13.7 6 28.7
2011-03-16 09:00:36 51°25.702 2°53.606 8.8 13.7 6 28.5
2011-03-16 09:00:41 51°25.721 2°53.609 8.9 13.7 6 28.6
2011-03-16 09:00:46 51°25.74 2°53.612 9 13.7 6 29
2011-03-16 09:00:51 51°25.759 2°53.616 9 13.6 6 29
2011-03-16 09:00:55 51°25.774 2°53.618 9.2 13.6 6 29.1
2011-03-16 09:01:01 51°25.797 2°53.623 9.4 13.8 7 29.5
2011-03-16 09:01:06 51°25.816 2°53.627 9.2 13.7 7 30.1
2011-03-16 09:01:11 51°25.835 2°53.63 9.9 13.6 7 30
2011-03-16 09:01:14 51°25.846 2°53.632 9.3 13.6 7 30.1
2011-03-16 09:01:21 51°25.873 2°53.637 9.5 13.7 7 30.4
2011-03-16 09:01:26 51°25.892 2°53.641 9.6 13.8 7 30.5
2011-03-16 09:01:31 51°25.911 2°53.644 9.1 13.8 6 30.4
2011-03-16 09:01:36 51°25.93 2°53.647 8.8 13.8 6 30.8
2011-03-16 09:01:41 51°25.949 2°53.651 8.8 13.7 6 31.1
2011-03-16 09:01:46 51°25.968 2°53.654 9.2 13.8 6 31.5
2011-03-16 09:01:49 51°25.979 2°53.656 8.9 13.9 7 32
2011-03-16 09:01:56 51°26.006 2°53.661 9.2 13.7 7 32.3
2011-03-16 09:02:01 51°26.025 2°53.665 9.5 13.7 7 32.6
2011-03-16 09:02:06 51°26.043 2°53.668 9.5 13.7 7 32.5
2011-03-16 09:02:10 51°26.058 2°53.671 9.4 13.6 7 33.6
2011-03-16 09:02:16 51°26.081 2°53.675 9.4 13.5 6 33.9
2011-03-16 09:02:21 51°26.1 2°53.679 9 13.7 7 33.6
2011-03-16 09:02:26 51°26.119 2°53.682 8.7 13.6 6 33.5
2011-03-16 09:02:31 51°26.137 2°53.685 9 13.6 7 33.5
2011-03-16 09:02:35 51°26.152 2°53.687 9 13.6 6 33.4
2011-03-16 09:02:41 51°26.175 2°53.691 8.8 13.8 6 33.6
2011-03-16 09:02:46 51°26.194 2°53.694 8.5 13.8 6 33.8
2011-03-16 09:02:50 51°26.209 2°53.697 8.7 13.8 7 33.7
2011-03-16 09:02:56 51°26.232 2°53.701 8.7 13.8 6 33.8
2011-03-16 09:03:01 51°26.251 2°53.705 9.2 13.9 7 33.9
2011-03-16 09:03:06 51°26.27 2°53.708 9 13.8 6 34.6
2011-03-16 09:03:11 51°26.289 2°53.711 9.1 13.8 7 34.7
2011-03-16 09:03:15 51°26.304 2°53.714 9.5 13.8 7 34.7
2011-03-16 09:03:21 51°26.327 2°53.718 9.6 13.8 6 34.9
2011-03-16 09:03:26 51°26.346 2°53.721 8.8 13.8 6 35.2
2011-03-16 09:03:31 51°26.365 2°53.725 9.3 13.8 7 35.1
2011-03-16 09:03:34 51°26.377 2°53.727 9.2 13.9 6 35.3
2011-03-16 09:03:41 51°26.403 2°53.733 9.7 13.8 8 35
2011-03-16 09:03:46 51°26.423 2°53.736 9.5 13.9 6 34.3
2011-03-16 09:03:51 51°26.442 2°53.739 8.4 13.9 6 34.3
2011-03-16 09:03:56 51°26.461 2°53.742 7.9 13.9 5 34.8
2011-03-16 09:04:01 51°26.48 2°53.745 7.3 13.9 5 34.7
2011-03-16 09:04:06 51°26.499 2°53.747 6.6 13.8 5 34.4
2011-03-16 09:04:10 51°26.515 2°53.749 7 13.8 5 34.7
2011-03-16 09:04:16 51°26.538 2°53.752 6.6 13.9 4 34.7
2011-03-16 09:04:21 51°26.557 2°53.754 5.9 13.9 4 34.7
2011-03-16 09:04:26 51°26.576 2°53.757 6.1 13.9 5 34.7
2011-03-16 09:04:30 51°26.591 2°53.758 5.9 13.8 3 34.7
2011-03-16 09:04:35 51°26.61 2°53.76 5.2 13.7 3 34.8
2011-03-16 09:04:41 51°26.633 2°53.761 4.4 13.8 2 34.8
2011-03-16 09:04:46 51°26.652 2°53.762 3.6 13.8 2 34.1
2011-03-16 09:04:51 51°26.671 2°53.762 2.9 13.9 1 33.9
2011-03-16 09:04:55 51°26.687 2°53.763 3 13.7 2 34
2011-03-16 09:05:01 51°26.71 2°53.763 2.9 13.7 1 33.5
2011-03-16 09:05:06 51°26.729 2°53.764 2.1 13.8 1 33.6
2011-03-16 09:05:10 51°26.744 2°53.765 2.9 13.8 1 33.3
2011-03-16 09:05:16 51°26.767 2°53.765 2.7 13.9 1 33
2011-03-16 09:05:21 51°26.786 2°53.766 3 13.9 1 32
2011-03-16 09:05:26 51°26.805 2°53.766 2.7 13.7 1 31.5
2011-03-16 09:05:30 51°26.821 2°53.766 2.5 13.8 -999 29.7
2011-03-16 09:05:36 51°26.844 2°53.767 2.1 13.8 1 28.6
2011-03-16 09:05:41 51°26.863 2°53.767 2.3 13.8 1 28.7
2011-03-16 09:05:46 51°26.882 2°53.767 2.1 13.8 -999 28.9
2011-03-16 09:05:51 51°26.901 2°53.768 2.2 13.8 1 29.6
2011-03-16 09:05:55 51°26.916 2°53.768 2.6 13.9 1 29.2
2011-03-16 09:06:01 51°26.939 2°53.77 2.9 13.9 2 28.2
2011-03-16 09:06:06 51°26.958 2°53.77 3.3 13.8 2 27.9
2011-03-16 09:06:10 51°26.974 2°53.771 3 13.8 2 27.5
2011-03-16 09:06:16 51°26.997 2°53.773 3 13.9 2 27.4
2011-03-16 09:06:21 51°27.016 2°53.774 3.6 14 2 27.5
2011-03-16 09:06:26 51°27.035 2°53.774 3.4 13.9 1 27.1
2011-03-16 09:06:30 51°27.051 2°53.775 3 13.8 2 26.1
2011-03-16 09:06:36 51°27.074 2°53.777 3 14 2 26.1
2011-03-16 09:06:41 51°27.093 2°53.777 3.1 13.9 1 25.9
2011-03-16 09:06:46 51°27.112 2°53.778 2.9 14 2 26
2011-03-16 09:06:50 51°27.128 2°53.779 2.8 14 2 25.8
2011-03-16 09:06:56 51°27.151 2°53.781 3.2 13.9 2 25.9
2011-03-16 09:07:01 51°27.171 2°53.782 3.3 14 2 26.5
2011-03-16 09:07:06 51°27.19 2°53.783 3.2 14 2 26.4
2011-03-16 09:07:10 51°27.206 2°53.784 3.6 14.1 3 25.9
2011-03-16 09:07:16 51°27.228 2°53.785 3.1 13.9 1 26.1
2011-03-16 09:07:21 51°27.248 2°53.786 2.8 13.9 2 26.4
2011-03-16 09:07:25 51°27.263 2°53.787 3 13.9 2 26.9
2011-03-16 09:07:31 51°27.286 2°53.788 3.1 13.8 2 26.2
2011-03-16 09:07:36 51°27.305 2°53.789 3.2 13.9 2 25.9
2011-03-16 09:07:41 51°27.325 2°53.79 3.4 13.9 2 26.3
2011-03-16 09:07:46 51°27.344 2°53.791 3 13.9 2 26.3
2011-03-16 09:07:50 51°27.36 2°53.792 3 13.9 1 26.4
2011-03-16 09:07:56 51°27.383 2°53.794 3 13.9 3 26.2
2011-03-16 09:08:01 51°27.402 2°53.796 4.1 13.9 5 26.8
2011-03-16 09:08:06 51°27.421 2°53.799 5.7 14 5 26.4
2011-03-16 09:08:11 51°27.441 2°53.802 6.5 14 6 26.4
2011-03-16 09:08:16 51°27.46 2°53.805 6.9 14 6 26.5
2011-03-16 09:08:21 51°27.479 2°53.809 6.6 14 6 26.5
2011-03-16 09:08:26 51°27.498 2°53.812 6.9 14 6 26
2011-03-16 09:08:30 51°27.514 2°53.814 6.9 14 6 23.9
2011-03-16 09:08:36 51°27.537 2°53.818 7.3 13.9 6 25.9
2011-03-16 09:08:41 51°27.556 2°53.822 7.3 13.9 6 25.8
2011-03-16 09:08:46 51°27.576 2°53.825 7.3 13.9 7 25.7
2011-03-16 09:08:50 51°27.591 2°53.828 7.7 13.9 6 25.8
2011-03-16 09:08:56 51°27.614 2°53.832 7.4 14 6 25.7
2011-03-16 09:09:01 51°27.633 2°53.835 7 14 6 24.7
2011-03-16 09:09:06 51°27.652 2°53.838 7.2 13.9 6 24.9
2011-03-16 09:09:10 51°27.668 2°53.84 6.9 13.9 5 25.3
2011-03-16 09:09:15 51°27.687 2°53.844 7.1 13.9 6 24.8
2011-03-16 09:09:21 51°27.71 2°53.847 6.8 13.9 5 23.8
2011-03-16 09:09:26 51°27.729 2°53.85 6.8 13.9 6 22.5
2011-03-16 09:09:31 51°27.748 2°53.853 6.2 13.8 5 24.3
2011-03-16 09:09:35 51°27.763 2°53.855 6.6 13.8 6 24.8
2011-03-16 09:09:41 51°27.786 2°53.859 6.5 13.8 5 23.6
2011-03-16 09:09:46 51°27.805 2°53.862 6.9 13.9 6 22.6
2011-03-16 09:09:51 51°27.824 2°53.865 7.1 13.7 6 22.7
2011-03-16 09:09:56 51°27.843 2°53.868 7.3 13.7 6 23.2
2011-03-16 09:10:01 51°27.862 2°53.872 7.3 13.8 7 22.2
2011-03-16 09:10:06 51°27.881 2°53.875 7.8 13.7 6 22.1
2011-03-16 09:10:11 51°27.9 2°53.878 7.1 13.7 6 23.6
2011-03-16 09:10:16 51°27.919 2°53.881 7 13.8 6 22.3
2011-03-16 09:10:21 51°27.938 2°53.884 7.2 13.8 6 20.3
2011-03-16 09:10:26 51°27.957 2°53.887 7.2 13.8 6 22.1
2011-03-16 09:10:30 51°27.973 2°53.89 6.9 13.8 6 22.7
2011-03-16 09:10:35 51°27.992 2°53.893 6.8 13.8 6 23.1
2011-03-16 09:10:41 51°28.014 2°53.897 7.4 13.7 6 23.8
2011-03-16 09:10:46 51°28.033 2°53.9 7.4 13.8 6 23.8
2011-03-16 09:10:50 51°28.048 2°53.903 7.1 13.7 6 24.6
2011-03-16 09:10:56 51°28.071 2°53.906 7 13.9 6 24.9
2011-03-16 09:11:01 51°28.09 2°53.909 6.8 13.6 5 24.3
2011-03-16 09:11:06 51°28.109 2°53.912 6.7 13.6 5 23.8
2011-03-16 09:11:10 51°28.124 2°53.914 6.8 13.7 6 24.2
2011-03-16 09:11:16 51°28.147 2°53.918 7.3 13.7 5 21.9
2011-03-16 09:11:21 51°28.166 2°53.921 6.9 13.7 6 23.5
2011-03-16 09:11:26 51°28.184 2°53.923 7.2 13.8 5 23.2
2011-03-16 09:11:30 51°28.2 2°53.925 6.5 13.8 6 22.4
2011-03-16 09:11:36 51°28.222 2°53.929 7.1 13.8 6 23.4
2011-03-16 09:11:41 51°28.242 2°53.932 7.2 13.8 6 23.6
2011-03-16 09:11:46 51°28.26 2°53.935 7.4 13.8 5 23.5
2011-03-16 09:11:51 51°28.28 2°53.937 7.1 13.8 5 24.7
2011-03-16 09:11:55 51°28.295 2°53.94 6.8 13.8 5 24.8
2011-03-16 09:12:01 51°28.318 2°53.943 7.4 13.8 5 25
2011-03-16 09:12:06 51°28.337 2°53.946 7.3 13.8 6 23.6
2011-03-16 09:12:11 51°28.356 2°53.949 8.1 13.9 6 24.4
2011-03-16 09:12:15 51°28.371 2°53.952 7.6 13.8 6 25.2
2011-03-16 09:12:21 51°28.394 2°53.955 8.2 13.9 5 25.4
2011-03-16 09:12:26 51°28.413 2°53.959 7.9 14 6 25.2
2011-03-16 09:12:31 51°28.433 2°53.962 8.4 14 6 25.4
2011-03-16 09:12:36 51°28.452 2°53.966 8.5 13.9 6 25.1
2011-03-16 09:12:41 51°28.471 2°53.969 8.1 13.9 6 25.2
2011-03-16 09:12:46 51°28.49 2°53.972 7.9 13.9 6 25.6
2011-03-16 09:12:50 51°28.506 2°53.974 8.2 13.9 6 26
2011-03-16 09:12:55 51°28.525 2°53.977 7.6 13.9 5 26.3
2011-03-16 09:13:01 51°28.548 2°53.981 7.9 14 6 26.6
2011-03-16 09:13:06 51°28.567 2°53.984 8.1 13.9 6 26.5
2011-03-16 09:13:10 51°28.583 2°53.986 8.1 13.9 5 26.6
2011-03-16 09:13:16 51°28.606 2°53.99 7.7 13.9 5 26.6
2011-03-16 09:13:21 51°28.625 2°53.993 7.3 13.8 5 26.7
2011-03-16 09:13:26 51°28.644 2°53.996 7.9 13.7 6 27.2
2011-03-16 09:13:30 51°28.659 2°53.998 8.1 13.9 5 27.2
2011-03-16 09:13:36 51°28.682 2°54.002 7.7 13.9 5 26.6
2011-03-16 09:13:41 51°28.701 2°54.005 7.6 13.9 6 26.9
2011-03-16 09:13:46 51°28.72 2°54.007 7.6 13.9 5 26.9
2011-03-16 09:13:50 51°28.736 2°54.01 7.3 14 6 27.1
2011-03-16 09:13:56 51°28.759 2°54.013 7.3 14 5 27.2
2011-03-16 09:14:01 51°28.778 2°54.016 7.2 14 5 27.2
2011-03-16 09:14:06 51°28.798 2°54.018 7.3 13.9 5 27.1
2011-03-16 09:14:11 51°28.817 2°54.021 7.3 13.9 5 27.8
2011-03-16 09:14:16 51°28.836 2°54.024 7.3 13.9 5 27.7
2011-03-16 09:14:21 51°28.855 2°54.026 7.1 13.8 5 27.3
2011-03-16 09:14:26 51°28.875 2°54.028 7 13.9 4 27.6
2011-03-16 09:14:31 51°28.894 2°54.031 6.5 14 5 27.9
2011-03-16 09:14:36 51°28.913 2°54.033 6.8 14 5 27.8
2011-03-16 09:14:41 51°28.933 2°54.036 7 13.9 5 27.9
2011-03-16 09:14:46 51°28.952 2°54.039 7.7 14 6 28
2011-03-16 09:14:51 51°28.972 2°54.042 7.6 14 5 28.6
2011-03-16 09:14:55 51°28.987 2°54.044 7.3 14 5 28.6
2011-03-16 09:15:01 51°29.01 2°54.048 8.1 13.8 5 28.4
2011-03-16 09:15:06 51°29.029 2°54.05 8.1 13.9 5 28.3
2011-03-16 09:15:10 51°29.044 2°54.052 7.5 13.9 5 28.7
2011-03-16 09:15:16 51°29.067 2°54.056 6.9 13.8 5 29.2
2011-03-16 09:15:21 51°29.086 2°54.059 7.5 13.7 7 28.7
2011-03-16 09:15:26 51°29.105 2°54.063 8.2 13.7 7 29
2011-03-16 09:15:30 51°29.12 2°54.066 8.4 13.7 7 29.4
2011-03-16 09:15:36 51°29.143 2°54.071 8.4 13.7 8 30
2011-03-16 09:15:41 51°29.161 2°54.074 8.7 13.4 6 29
2011-03-16 09:15:46 51°29.18 2°54.078 8.2 13.5 7 29
2011-03-16 09:15:50 51°29.195 2°54.081 8 13.5 6 29.5
2011-03-16 09:15:56 51°29.217 2°54.084 7.7 13.5 6 29.4
2011-03-16 09:16:01 51°29.235 2°54.088 7.8 13.5 7 29.6
2011-03-16 09:16:06 51°29.254 2°54.091 7.8 13.5 7 30
2011-03-16 09:16:10 51°29.269 2°54.094 7.7 13.6 6 30.3